sensor_id;sensor_type;location;lat;lon;timestamp;P1;durP1;ratioP1;P2;durP2;ratioP2
20619;SDS011;10469;42.720;23.252;2022-07-06T00:00:42;0.85;;;0.85;;
20619;SDS011;10469;42.720;23.252;2022-07-06T00:03:07;0.80;;;0.80;;
20619;SDS011;10469;42.720;23.252;2022-07-06T00:05:32;0.70;;;0.70;;
20619;SDS011;10469;42.720;23.252;2022-07-06T00:07:58;0.60;;;0.60;;
20619;SDS011;10469;42.720;23.252;2022-07-06T00:10:23;1.52;;;1.42;;
20619;SDS011;10469;42.720;23.252;2022-07-06T00:12:49;1.45;;;1.40;;
20619;SDS011;10469;42.720;23.252;2022-07-06T00:15:14;2.00;;;1.90;;
20619;SDS011;10469;42.720;23.252;2022-07-06T00:17:40;1.73;;;1.60;;
20619;SDS011;10469;42.720;23.252;2022-07-06T00:20:05;1.00;;;1.00;;
20619;SDS011;10469;42.720;23.252;2022-07-06T00:22:31;1.85;;;1.75;;
20619;SDS011;10469;42.720;23.252;2022-07-06T00:24:56;0.25;;;0.25;;
20619;SDS011;10469;42.720;23.252;2022-07-06T00:27:22;3.38;;;2.17;;
20619;SDS011;10469;42.720;23.252;2022-07-06T00:29:47;4.43;;;1.40;;
20619;SDS011;10469;42.720;23.252;2022-07-06T00:32:13;1.10;;;1.08;;
20619;SDS011;10469;42.720;23.252;2022-07-06T00:34:38;1.10;;;1.05;;
20619;SDS011;10469;42.720;23.252;2022-07-06T00:37:07;0.60;;;0.60;;
20619;SDS011;10469;42.720;23.252;2022-07-06T00:39:33;0.45;;;0.45;;
20619;SDS011;10469;42.720;23.252;2022-07-06T00:42:00;0.93;;;0.93;;
20619;SDS011;10469;42.720;23.252;2022-07-06T00:44:26;1.55;;;1.45;;
20619;SDS011;10469;42.720;23.252;2022-07-06T00:46:51;1.67;;;1.55;;
20619;SDS011;10469;42.720;23.252;2022-07-06T00:49:17;0.90;;;0.90;;
20619;SDS011;10469;42.720;23.252;2022-07-06T00:52:01;3.47;;;2.15;;
20619;SDS011;10469;42.720;23.252;2022-07-06T00:54:28;0.65;;;0.65;;
20619;SDS011;10469;42.720;23.252;2022-07-06T00:56:57;7.32;;;2.85;;
20619;SDS011;10469;42.720;23.252;2022-07-06T00:59:23;1.05;;;1.05;;
20619;SDS011;10469;42.720;23.252;2022-07-06T01:01:50;1.20;;;0.73;;
20619;SDS011;10469;42.720;23.252;2022-07-06T01:04:15;1.55;;;1.23;;
20619;SDS011;10469;42.720;23.252;2022-07-06T01:06:41;1.27;;;1.17;;
20619;SDS011;10469;42.720;23.252;2022-07-06T01:09:08;1.30;;;1.30;;
20619;SDS011;10469;42.720;23.252;2022-07-06T01:11:33;1.80;;;1.55;;
20619;SDS011;10469;42.720;23.252;2022-07-06T01:14:00;0.80;;;0.80;;
20619;SDS011;10469;42.720;23.252;2022-07-06T01:16:26;3.10;;;2.03;;
20619;SDS011;10469;42.720;23.252;2022-07-06T01:18:51;1.48;;;1.38;;
20619;SDS011;10469;42.720;23.252;2022-07-06T01:21:17;1.05;;;1.05;;
20619;SDS011;10469;42.720;23.252;2022-07-06T01:23:43;0.50;;;0.50;;
20619;SDS011;10469;42.720;23.252;2022-07-06T01:26:11;0.80;;;0.80;;
20619;SDS011;10469;42.720;23.252;2022-07-06T01:28:38;1.23;;;1.15;;
20619;SDS011;10469;42.720;23.252;2022-07-06T01:31:04;1.17;;;0.95;;
20619;SDS011;10469;42.720;23.252;2022-07-06T01:33:29;1.25;;;1.25;;
20619;SDS011;10469;42.720;23.252;2022-07-06T01:35:55;1.52;;;1.42;;
20619;SDS011;10469;42.720;23.252;2022-07-06T01:38:20;4.95;;;2.05;;
20619;SDS011;10469;42.720;23.252;2022-07-06T01:40:46;2.20;;;1.85;;
20619;SDS011;10469;42.720;23.252;2022-07-06T01:43:11;1.05;;;1.05;;
20619;SDS011;10469;42.720;23.252;2022-07-06T01:45:36;0.90;;;0.90;;
20619;SDS011;10469;42.720;23.252;2022-07-06T01:48:05;0.70;;;0.68;;
20619;SDS011;10469;42.720;23.252;2022-07-06T01:50:31;1.60;;;1.50;;
20619;SDS011;10469;42.720;23.252;2022-07-06T01:52:59;1.38;;;1.23;;
20619;SDS011;10469;42.720;23.252;2022-07-06T01:55:24;1.30;;;1.20;;
20619;SDS011;10469;42.720;23.252;2022-07-06T01:57:50;3.35;;;2.72;;
20619;SDS011;10469;42.720;23.252;2022-07-06T02:00:15;14.52;;;10.82;;
20619;SDS011;10469;42.720;23.252;2022-07-06T02:02:41;16.10;;;10.65;;
20619;SDS011;10469;42.720;23.252;2022-07-06T02:05:06;12.32;;;10.77;;
20619;SDS011;10469;42.720;23.252;2022-07-06T02:07:32;18.38;;;11.18;;
20619;SDS011;10469;42.720;23.252;2022-07-06T02:09:58;16.40;;;10.57;;
20619;SDS011;10469;42.720;23.252;2022-07-06T02:12:23;15.90;;;11.27;;
20619;SDS011;10469;42.720;23.252;2022-07-06T02:14:48;14.85;;;11.55;;
20619;SDS011;10469;42.720;23.252;2022-07-06T02:17:14;13.98;;;11.50;;
20619;SDS011;10469;42.720;23.252;2022-07-06T02:19:39;13.50;;;10.80;;
20619;SDS011;10469;42.720;23.252;2022-07-06T02:22:05;15.90;;;10.43;;
20619;SDS011;10469;42.720;23.252;2022-07-06T02:24:30;20.63;;;10.32;;
20619;SDS011;10469;42.720;23.252;2022-07-06T02:26:56;15.05;;;11.02;;
20619;SDS011;10469;42.720;23.252;2022-07-06T02:29:21;15.05;;;11.30;;
20619;SDS011;10469;42.720;23.252;2022-07-06T02:31:46;17.35;;;11.18;;
20619;SDS011;10469;42.720;23.252;2022-07-06T02:34:12;13.50;;;10.45;;
20619;SDS011;10469;42.720;23.252;2022-07-06T02:36:37;13.02;;;10.18;;
20619;SDS011;10469;42.720;23.252;2022-07-06T02:39:03;16.33;;;10.02;;
20619;SDS011;10469;42.720;23.252;2022-07-06T02:41:28;16.20;;;10.27;;
20619;SDS011;10469;42.720;23.252;2022-07-06T02:43:54;16.38;;;9.82;;
20619;SDS011;10469;42.720;23.252;2022-07-06T02:46:19;15.52;;;10.38;;
20619;SDS011;10469;42.720;23.252;2022-07-06T02:48:45;14.82;;;9.75;;
20619;SDS011;10469;42.720;23.252;2022-07-06T02:51:10;12.48;;;10.00;;
20619;SDS011;10469;42.720;23.252;2022-07-06T02:53:36;15.85;;;9.65;;
20619;SDS011;10469;42.720;23.252;2022-07-06T02:56:01;19.70;;;10.57;;
20619;SDS011;10469;42.720;23.252;2022-07-06T02:58:26;14.40;;;11.07;;
20619;SDS011;10469;42.720;23.252;2022-07-06T03:00:52;14.30;;;9.73;;
20619;SDS011;10469;42.720;23.252;2022-07-06T03:03:17;16.45;;;10.60;;
20619;SDS011;10469;42.720;23.252;2022-07-06T03:05:43;18.20;;;10.27;;
20619;SDS011;10469;42.720;23.252;2022-07-06T03:08:09;12.93;;;8.57;;
20619;SDS011;10469;42.720;23.252;2022-07-06T03:10:34;11.85;;;9.57;;
20619;SDS011;10469;42.720;23.252;2022-07-06T03:13:00;14.35;;;9.57;;
20619;SDS011;10469;42.720;23.252;2022-07-06T03:15:25;13.20;;;9.13;;
20619;SDS011;10469;42.720;23.252;2022-07-06T03:17:51;11.40;;;9.23;;
20619;SDS011;10469;42.720;23.252;2022-07-06T03:20:16;11.85;;;9.20;;
20619;SDS011;10469;42.720;23.252;2022-07-06T03:22:42;14.93;;;9.05;;
20619;SDS011;10469;42.720;23.252;2022-07-06T03:25:07;10.48;;;8.43;;
20619;SDS011;10469;42.720;23.252;2022-07-06T03:27:33;14.35;;;9.82;;
20619;SDS011;10469;42.720;23.252;2022-07-06T03:30:00;14.98;;;8.98;;
20619;SDS011;10469;42.720;23.252;2022-07-06T03:32:26;14.40;;;9.32;;
20619;SDS011;10469;42.720;23.252;2022-07-06T03:34:51;11.80;;;8.52;;
20619;SDS011;10469;42.720;23.252;2022-07-06T03:37:17;12.43;;;9.25;;
20619;SDS011;10469;42.720;23.252;2022-07-06T03:39:42;15.35;;;8.95;;
20619;SDS011;10469;42.720;23.252;2022-07-06T03:42:07;15.35;;;9.15;;
20619;SDS011;10469;42.720;23.252;2022-07-06T03:44:33;13.15;;;8.75;;
20619;SDS011;10469;42.720;23.252;2022-07-06T03:46:58;16.95;;;8.23;;
20619;SDS011;10469;42.720;23.252;2022-07-06T03:49:24;16.92;;;10.13;;
20619;SDS011;10469;42.720;23.252;2022-07-06T03:51:52;10.05;;;8.23;;
20619;SDS011;10469;42.720;23.252;2022-07-06T03:54:17;12.93;;;7.93;;
20619;SDS011;10469;42.720;23.252;2022-07-06T03:56:42;14.88;;;8.48;;
20619;SDS011;10469;42.720;23.252;2022-07-06T03:59:08;12.15;;;8.27;;
20619;SDS011;10469;42.720;23.252;2022-07-06T04:01:33;11.93;;;8.85;;
20619;SDS011;10469;42.720;23.252;2022-07-06T04:03:59;11.00;;;8.93;;
20619;SDS011;10469;42.720;23.252;2022-07-06T04:06:24;11.18;;;8.25;;
20619;SDS011;10469;42.720;23.252;2022-07-06T04:08:51;9.25;;;8.18;;
20619;SDS011;10469;42.720;23.252;2022-07-06T04:11:17;9.30;;;8.18;;
20619;SDS011;10469;42.720;23.252;2022-07-06T04:13:42;11.00;;;8.07;;
20619;SDS011;10469;42.720;23.252;2022-07-06T04:16:08;10.57;;;8.30;;
20619;SDS011;10469;42.720;23.252;2022-07-06T04:18:33;12.10;;;8.15;;
20619;SDS011;10469;42.720;23.252;2022-07-06T04:20:59;16.75;;;8.13;;
20619;SDS011;10469;42.720;23.252;2022-07-06T04:23:24;15.90;;;8.43;;
20619;SDS011;10469;42.720;23.252;2022-07-06T04:25:50;14.20;;;8.00;;
20619;SDS011;10469;42.720;23.252;2022-07-06T04:28:15;9.98;;;8.00;;
20619;SDS011;10469;42.720;23.252;2022-07-06T04:30:41;13.32;;;8.27;;
20619;SDS011;10469;42.720;23.252;2022-07-06T04:33:06;12.48;;;8.48;;
20619;SDS011;10469;42.720;23.252;2022-07-06T04:35:32;16.55;;;8.98;;
20619;SDS011;10469;42.720;23.252;2022-07-06T04:37:57;18.85;;;9.90;;
20619;SDS011;10469;42.720;23.252;2022-07-06T04:40:23;17.65;;;10.35;;
20619;SDS011;10469;42.720;23.252;2022-07-06T04:42:48;14.48;;;10.70;;
20619;SDS011;10469;42.720;23.252;2022-07-06T04:45:14;15.85;;;11.00;;
20619;SDS011;10469;42.720;23.252;2022-07-06T04:47:39;20.13;;;11.68;;
20619;SDS011;10469;42.720;23.252;2022-07-06T04:50:05;15.38;;;11.80;;
20619;SDS011;10469;42.720;23.252;2022-07-06T04:52:31;16.73;;;12.27;;
20619;SDS011;10469;42.720;23.252;2022-07-06T08:11:24;14.82;;;13.20;;
20619;SDS011;10469;42.720;23.252;2022-07-06T08:13:50;14.95;;;12.20;;
20619;SDS011;10469;42.720;23.252;2022-07-06T08:16:15;14.70;;;12.20;;
20619;SDS011;10469;42.720;23.252;2022-07-06T08:18:42;12.85;;;11.55;;
20619;SDS011;10469;42.720;23.252;2022-07-06T08:21:07;20.65;;;11.75;;
20619;SDS011;10469;42.720;23.252;2022-07-06T08:23:33;16.15;;;10.57;;
20619;SDS011;10469;42.720;23.252;2022-07-06T08:26:02;17.55;;;11.15;;
20619;SDS011;10469;42.720;23.252;2022-07-06T08:28:28;18.92;;;11.63;;
20619;SDS011;10469;42.720;23.252;2022-07-06T08:30:54;15.25;;;11.45;;
20619;SDS011;10469;42.720;23.252;2022-07-06T08:33:19;15.43;;;10.90;;
20619;SDS011;10469;42.720;23.252;2022-07-06T08:35:45;16.38;;;11.43;;
20619;SDS011;10469;42.720;23.252;2022-07-06T08:38:11;12.88;;;11.52;;
20619;SDS011;10469;42.720;23.252;2022-07-06T08:40:36;14.45;;;11.43;;
20619;SDS011;10469;42.720;23.252;2022-07-06T08:43:04;10.85;;;9.68;;
20619;SDS011;10469;42.720;23.252;2022-07-06T08:45:30;19.52;;;11.10;;
20619;SDS011;10469;42.720;23.252;2022-07-06T08:48:00;12.73;;;11.10;;
20619;SDS011;10469;42.720;23.252;2022-07-06T08:50:29;12.70;;;10.60;;
20619;SDS011;10469;42.720;23.252;2022-07-06T08:52:55;13.15;;;10.30;;
20619;SDS011;10469;42.720;23.252;2022-07-06T08:55:21;14.93;;;10.95;;
20619;SDS011;10469;42.720;23.252;2022-07-06T08:57:46;14.73;;;10.68;;
20619;SDS011;10469;42.720;23.252;2022-07-06T09:00:12;16.80;;;12.05;;
20619;SDS011;10469;42.720;23.252;2022-07-06T09:02:40;14.15;;;10.45;;
20619;SDS011;10469;42.720;23.252;2022-07-06T09:05:06;12.88;;;11.13;;
20619;SDS011;10469;42.720;23.252;2022-07-06T09:07:33;12.90;;;11.35;;
20619;SDS011;10469;42.720;23.252;2022-07-06T09:09:59;12.85;;;10.77;;
20619;SDS011;10469;42.720;23.252;2022-07-06T09:12:28;14.15;;;11.90;;
20619;SDS011;10469;42.720;23.252;2022-07-06T09:14:57;13.90;;;11.68;;
20619;SDS011;10469;42.720;23.252;2022-07-06T09:17:27;13.35;;;11.93;;
20619;SDS011;10469;42.720;23.252;2022-07-06T09:19:54;15.57;;;12.30;;
20619;SDS011;10469;42.720;23.252;2022-07-06T09:25:09;14.40;;;12.68;;
20619;SDS011;10469;42.720;23.252;2022-07-06T09:27:43;15.25;;;13.15;;
20619;SDS011;10469;42.720;23.252;2022-07-06T09:30:15;20.30;;;14.48;;
20619;SDS011;10469;42.720;23.252;2022-07-06T09:32:45;16.67;;;14.43;;
20619;SDS011;10469;42.720;23.252;2022-07-06T09:35:25;20.15;;;14.93;;
20619;SDS011;10469;42.720;23.252;2022-07-06T09:40:32;17.85;;;15.60;;
20619;SDS011;10469;42.720;23.252;2022-07-06T09:43:15;21.23;;;14.93;;
20619;SDS011;10469;42.720;23.252;2022-07-06T09:45:44;17.90;;;15.30;;
20619;SDS011;10469;42.720;23.252;2022-07-06T09:50:42;19.13;;;15.02;;
20619;SDS011;10469;42.720;23.252;2022-07-06T09:53:09;21.42;;;16.30;;
20619;SDS011;10469;42.720;23.252;2022-07-06T09:55:36;19.33;;;15.10;;
20619;SDS011;10469;42.720;23.252;2022-07-06T09:58:02;17.40;;;14.65;;
20619;SDS011;10469;42.720;23.252;2022-07-06T10:00:28;16.52;;;14.27;;
20619;SDS011;10469;42.720;23.252;2022-07-06T10:02:53;17.13;;;14.77;;
20619;SDS011;10469;42.720;23.252;2022-07-06T10:05:19;21.90;;;16.58;;
20619;SDS011;10469;42.720;23.252;2022-07-06T10:07:52;17.50;;;15.30;;
20619;SDS011;10469;42.720;23.252;2022-07-06T10:10:22;24.42;;;15.70;;
20619;SDS011;10469;42.720;23.252;2022-07-06T10:12:50;17.88;;;15.02;;
20619;SDS011;10469;42.720;23.252;2022-07-06T10:15:19;16.83;;;14.20;;
20619;SDS011;10469;42.720;23.252;2022-07-06T10:17:47;17.50;;;14.80;;
20619;SDS011;10469;42.720;23.252;2022-07-06T10:20:14;17.38;;;14.98;;
20619;SDS011;10469;42.720;23.252;2022-07-06T10:22:41;20.50;;;14.82;;
20619;SDS011;10469;42.720;23.252;2022-07-06T10:25:06;16.13;;;13.65;;
20619;SDS011;10469;42.720;23.252;2022-07-06T10:27:32;16.50;;;14.48;;
20619;SDS011;10469;42.720;23.252;2022-07-06T10:30:00;19.08;;;13.20;;
20619;SDS011;10469;42.720;23.252;2022-07-06T10:32:26;18.30;;;13.32;;
20619;SDS011;10469;42.720;23.252;2022-07-06T10:34:53;28.80;;;13.00;;
20619;SDS011;10469;42.720;23.252;2022-07-06T10:37:25;16.40;;;13.02;;
20619;SDS011;10469;42.720;23.252;2022-07-06T10:39:52;13.98;;;12.68;;
20619;SDS011;10469;42.720;23.252;2022-07-06T10:45:13;17.55;;;14.10;;
20619;SDS011;10469;42.720;23.252;2022-07-06T10:47:43;16.52;;;13.93;;
20619;SDS011;10469;42.720;23.252;2022-07-06T10:50:09;20.65;;;13.82;;
20619;SDS011;10469;42.720;23.252;2022-07-06T10:52:52;20.27;;;14.60;;
20619;SDS011;10469;42.720;23.252;2022-07-06T10:57:55;16.75;;;15.15;;
20619;SDS011;10469;42.720;23.252;2022-07-06T11:00:20;15.70;;;14.10;;
20619;SDS011;10469;42.720;23.252;2022-07-06T11:02:46;17.08;;;15.20;;
20619;SDS011;10469;42.720;23.252;2022-07-06T11:05:11;19.15;;;15.30;;
20619;SDS011;10469;42.720;23.252;2022-07-06T11:07:57;16.83;;;14.43;;
20619;SDS011;10469;42.720;23.252;2022-07-06T11:10:26;21.45;;;13.23;;
20619;SDS011;10469;42.720;23.252;2022-07-06T11:13:00;14.93;;;13.30;;
20619;SDS011;10469;42.720;23.252;2022-07-06T11:15:59;14.50;;;13.00;;
20619;SDS011;10469;42.720;23.252;2022-07-06T11:18:26;16.55;;;14.10;;
20619;SDS011;10469;42.720;23.252;2022-07-06T11:23:57;16.45;;;13.48;;
20619;SDS011;10469;42.720;23.252;2022-07-06T11:26:23;16.55;;;14.85;;
20619;SDS011;10469;42.720;23.252;2022-07-06T11:28:50;17.00;;;15.30;;
20619;SDS011;10469;42.720;23.252;2022-07-06T11:31:16;15.10;;;13.75;;
20619;SDS011;10469;42.720;23.252;2022-07-06T11:33:45;17.15;;;14.75;;
20619;SDS011;10469;42.720;23.252;2022-07-06T11:36:19;14.43;;;13.02;;
20619;SDS011;10469;42.720;23.252;2022-07-06T11:38:47;16.05;;;13.25;;
20619;SDS011;10469;42.720;23.252;2022-07-06T11:41:15;15.73;;;14.23;;
20619;SDS011;10469;42.720;23.252;2022-07-06T11:43:44;16.42;;;14.65;;
20619;SDS011;10469;42.720;23.252;2022-07-06T11:48:47;15.57;;;13.77;;
20619;SDS011;10469;42.720;23.252;2022-07-06T11:51:17;17.48;;;15.68;;
20619;SDS011;10469;42.720;23.252;2022-07-06T11:53:44;19.90;;;14.40;;
20619;SDS011;10469;42.720;23.252;2022-07-06T11:56:10;16.90;;;14.35;;
20619;SDS011;10469;42.720;23.252;2022-07-06T11:58:36;13.45;;;11.93;;
20619;SDS011;10469;42.720;23.252;2022-07-06T12:01:05;17.48;;;12.88;;
20619;SDS011;10469;42.720;23.252;2022-07-06T12:03:32;12.63;;;11.35;;
20619;SDS011;10469;42.720;23.252;2022-07-06T12:05:59;12.25;;;11.02;;
20619;SDS011;10469;42.720;23.252;2022-07-06T12:08:26;12.07;;;10.82;;
20619;SDS011;10469;42.720;23.252;2022-07-06T12:10:51;14.73;;;10.65;;
20619;SDS011;10469;42.720;23.252;2022-07-06T12:13:18;12.13;;;10.50;;
20619;SDS011;10469;42.720;23.252;2022-07-06T12:15:45;11.98;;;10.88;;
20619;SDS011;10469;42.720;23.252;2022-07-06T12:18:11;11.68;;;10.32;;
20619;SDS011;10469;42.720;23.252;2022-07-06T12:20:38;11.32;;;10.23;;
20619;SDS011;10469;42.720;23.252;2022-07-06T12:23:05;11.43;;;10.23;;
20619;SDS011;10469;42.720;23.252;2022-07-06T12:25:33;12.05;;;10.80;;
20619;SDS011;10469;42.720;23.252;2022-07-06T12:28:01;14.80;;;11.50;;
20619;SDS011;10469;42.720;23.252;2022-07-06T12:30:27;10.23;;;9.32;;
20619;SDS011;10469;42.720;23.252;2022-07-06T12:35:42;14.82;;;8.80;;
20619;SDS011;10469;42.720;23.252;2022-07-06T12:38:08;9.85;;;8.75;;
20619;SDS011;10469;42.720;23.252;2022-07-06T12:40:37;11.65;;;8.18;;
20619;SDS011;10469;42.720;23.252;2022-07-06T12:43:03;12.55;;;7.53;;
20619;SDS011;10469;42.720;23.252;2022-07-06T12:45:30;8.68;;;7.07;;
20619;SDS011;10469;42.720;23.252;2022-07-06T12:47:57;12.70;;;7.78;;
20619;SDS011;10469;42.720;23.252;2022-07-06T12:50:32;9.20;;;7.47;;
20619;SDS011;10469;42.720;23.252;2022-07-06T12:53:02;8.52;;;7.57;;
20619;SDS011;10469;42.720;23.252;2022-07-06T12:55:30;8.20;;;7.40;;
20619;SDS011;10469;42.720;23.252;2022-07-06T12:57:57;7.95;;;6.80;;
20619;SDS011;10469;42.720;23.252;2022-07-06T13:00:23;12.23;;;5.43;;
20619;SDS011;10469;42.720;23.252;2022-07-06T13:02:50;6.13;;;5.30;;
20619;SDS011;10469;42.720;23.252;2022-07-06T13:05:25;6.00;;;5.10;;
20619;SDS011;10469;42.720;23.252;2022-07-06T13:07:55;8.45;;;4.70;;
20619;SDS011;10469;42.720;23.252;2022-07-06T13:10:23;8.85;;;6.13;;
20619;SDS011;10469;42.720;23.252;2022-07-06T13:12:50;5.75;;;5.13;;
20619;SDS011;10469;42.720;23.252;2022-07-06T13:15:16;7.55;;;4.60;;
20619;SDS011;10469;42.720;23.252;2022-07-06T13:17:42;5.88;;;4.55;;
20619;SDS011;10469;42.720;23.252;2022-07-06T13:20:09;5.80;;;4.28;;
20619;SDS011;10469;42.720;23.252;2022-07-06T13:22:36;4.53;;;4.13;;
20619;SDS011;10469;42.720;23.252;2022-07-06T13:25:02;6.55;;;3.72;;
20619;SDS011;10469;42.720;23.252;2022-07-06T13:27:28;10.38;;;3.60;;
20619;SDS011;10469;42.720;23.252;2022-07-06T13:29:55;5.53;;;3.20;;
20619;SDS011;10469;42.720;23.252;2022-07-06T13:32:21;3.67;;;2.85;;
20619;SDS011;10469;42.720;23.252;2022-07-06T13:34:47;5.00;;;3.25;;
20619;SDS011;10469;42.720;23.252;2022-07-06T13:37:13;7.10;;;3.38;;
20619;SDS011;10469;42.720;23.252;2022-07-06T13:39:38;4.85;;;3.42;;
20619;SDS011;10469;42.720;23.252;2022-07-06T13:42:04;4.25;;;3.60;;
20619;SDS011;10469;42.720;23.252;2022-07-06T13:44:29;5.60;;;3.30;;
20619;SDS011;10469;42.720;23.252;2022-07-06T13:46:55;5.68;;;3.55;;
20619;SDS011;10469;42.720;23.252;2022-07-06T13:49:21;5.80;;;3.40;;
20619;SDS011;10469;42.720;23.252;2022-07-06T13:51:46;3.85;;;3.10;;
20619;SDS011;10469;42.720;23.252;2022-07-06T13:54:12;7.63;;;3.20;;
20619;SDS011;10469;42.720;23.252;2022-07-06T13:56:37;4.47;;;2.95;;
20619;SDS011;10469;42.720;23.252;2022-07-06T13:59:04;6.10;;;2.95;;
20619;SDS011;10469;42.720;23.252;2022-07-06T14:01:30;4.45;;;2.72;;
20619;SDS011;10469;42.720;23.252;2022-07-06T14:03:56;8.57;;;2.90;;
20619;SDS011;10469;42.720;23.252;2022-07-06T14:06:21;3.53;;;2.97;;
20619;SDS011;10469;42.720;23.252;2022-07-06T14:08:47;4.65;;;2.78;;
20619;SDS011;10469;42.720;23.252;2022-07-06T14:11:13;6.78;;;2.97;;
20619;SDS011;10469;42.720;23.252;2022-07-06T14:13:38;4.13;;;3.03;;
20619;SDS011;10469;42.720;23.252;2022-07-06T14:16:04;4.93;;;2.95;;
20619;SDS011;10469;42.720;23.252;2022-07-06T14:18:30;3.33;;;2.80;;
20619;SDS011;10469;42.720;23.252;2022-07-06T14:20:56;6.78;;;2.83;;
20619;SDS011;10469;42.720;23.252;2022-07-06T14:23:22;8.18;;;2.95;;
20619;SDS011;10469;42.720;23.252;2022-07-06T14:25:49;3.83;;;3.08;;
20619;SDS011;10469;42.720;23.252;2022-07-06T14:28:15;4.20;;;2.63;;
20619;SDS011;10469;42.720;23.252;2022-07-06T14:30:42;3.53;;;2.85;;
20619;SDS011;10469;42.720;23.252;2022-07-06T14:33:10;4.50;;;2.40;;
20619;SDS011;10469;42.720;23.252;2022-07-06T14:35:44;3.53;;;2.80;;
20619;SDS011;10469;42.720;23.252;2022-07-06T14:38:14;7.93;;;2.60;;
20619;SDS011;10469;42.720;23.252;2022-07-06T14:40:40;3.50;;;3.17;;
20619;SDS011;10469;42.720;23.252;2022-07-06T14:43:06;7.97;;;2.97;;
20619;SDS011;10469;42.720;23.252;2022-07-06T14:45:32;2.80;;;2.60;;
20619;SDS011;10469;42.720;23.252;2022-07-06T14:47:57;3.22;;;2.92;;
20619;SDS011;10469;42.720;23.252;2022-07-06T14:50:23;4.65;;;2.70;;
20619;SDS011;10469;42.720;23.252;2022-07-06T14:52:49;4.93;;;2.63;;
20619;SDS011;10469;42.720;23.252;2022-07-06T14:55:15;3.30;;;2.70;;
20619;SDS011;10469;42.720;23.252;2022-07-06T14:57:41;4.25;;;2.75;;
20619;SDS011;10469;42.720;23.252;2022-07-06T15:00:07;5.30;;;3.33;;
20619;SDS011;10469;42.720;23.252;2022-07-06T15:02:33;13.60;;;3.05;;
20619;SDS011;10469;42.720;23.252;2022-07-06T15:04:59;8.02;;;3.00;;
20619;SDS011;10469;42.720;23.252;2022-07-06T15:07:25;5.72;;;2.80;;
20619;SDS011;10469;42.720;23.252;2022-07-06T15:09:51;8.00;;;2.83;;
20619;SDS011;10469;42.720;23.252;2022-07-06T15:12:16;4.63;;;2.70;;
20619;SDS011;10469;42.720;23.252;2022-07-06T15:14:42;3.30;;;2.53;;
20619;SDS011;10469;42.720;23.252;2022-07-06T15:17:07;9.38;;;3.35;;
20619;SDS011;10469;42.720;23.252;2022-07-06T15:19:33;8.73;;;3.00;;
20619;SDS011;10469;42.720;23.252;2022-07-06T15:21:59;3.35;;;3.00;;
20619;SDS011;10469;42.720;23.252;2022-07-06T15:24:24;4.75;;;2.80;;
20619;SDS011;10469;42.720;23.252;2022-07-06T15:26:51;3.05;;;2.80;;
20619;SDS011;10469;42.720;23.252;2022-07-06T15:29:17;3.90;;;3.15;;
20619;SDS011;10469;42.720;23.252;2022-07-06T15:31:42;5.65;;;2.90;;
20619;SDS011;10469;42.720;23.252;2022-07-06T15:34:08;8.30;;;2.80;;
20619;SDS011;10469;42.720;23.252;2022-07-06T15:36:34;5.63;;;3.15;;
20619;SDS011;10469;42.720;23.252;2022-07-06T15:38:59;6.85;;;2.92;;
20619;SDS011;10469;42.720;23.252;2022-07-06T15:41:25;2.70;;;2.50;;
20619;SDS011;10469;42.720;23.252;2022-07-06T15:43:50;3.83;;;2.75;;
20619;SDS011;10469;42.720;23.252;2022-07-06T15:46:16;6.40;;;2.60;;
20619;SDS011;10469;42.720;23.252;2022-07-06T15:48:42;6.93;;;2.80;;
20619;SDS011;10469;42.720;23.252;2022-07-06T15:51:08;8.60;;;3.20;;
20619;SDS011;10469;42.720;23.252;2022-07-06T15:53:33;13.98;;;3.78;;
20619;SDS011;10469;42.720;23.252;2022-07-06T15:56:00;6.38;;;2.97;;
20619;SDS011;10469;42.720;23.252;2022-07-06T15:58:25;6.55;;;3.40;;
20619;SDS011;10469;42.720;23.252;2022-07-06T16:00:51;7.10;;;2.83;;
20619;SDS011;10469;42.720;23.252;2022-07-06T16:03:17;4.38;;;2.70;;
20619;SDS011;10469;42.720;23.252;2022-07-06T16:05:43;6.18;;;2.53;;
20619;SDS011;10469;42.720;23.252;2022-07-06T16:08:09;6.20;;;2.40;;
20619;SDS011;10469;42.720;23.252;2022-07-06T16:10:35;3.85;;;2.80;;
20619;SDS011;10469;42.720;23.252;2022-07-06T16:13:00;4.88;;;2.40;;
20619;SDS011;10469;42.720;23.252;2022-07-06T16:15:26;2.30;;;2.10;;
20619;SDS011;10469;42.720;23.252;2022-07-06T16:17:52;5.18;;;2.40;;
20619;SDS011;10469;42.720;23.252;2022-07-06T16:20:18;3.72;;;2.22;;
20619;SDS011;10469;42.720;23.252;2022-07-06T16:22:44;3.85;;;2.20;;
20619;SDS011;10469;42.720;23.252;2022-07-06T16:25:10;2.10;;;2.00;;
20619;SDS011;10469;42.720;23.252;2022-07-06T16:27:36;3.90;;;2.30;;
20619;SDS011;10469;42.720;23.252;2022-07-06T16:30:02;4.45;;;2.85;;
20619;SDS011;10469;42.720;23.252;2022-07-06T16:32:28;4.65;;;2.45;;
20619;SDS011;10469;42.720;23.252;2022-07-06T16:34:55;6.30;;;2.50;;
20619;SDS011;10469;42.720;23.252;2022-07-06T16:37:23;7.38;;;2.33;;
20619;SDS011;10469;42.720;23.252;2022-07-06T16:39:49;6.13;;;2.53;;
20619;SDS011;10469;42.720;23.252;2022-07-06T16:42:15;8.02;;;3.10;;
20619;SDS011;10469;42.720;23.252;2022-07-06T16:44:45;9.52;;;2.75;;
20619;SDS011;10469;42.720;23.252;2022-07-06T16:47:11;7.93;;;2.72;;
20619;SDS011;10469;42.720;23.252;2022-07-06T16:49:38;4.60;;;2.60;;
20619;SDS011;10469;42.720;23.252;2022-07-06T16:52:04;8.60;;;2.42;;
20619;SDS011;10469;42.720;23.252;2022-07-06T16:54:30;4.43;;;2.15;;
20619;SDS011;10469;42.720;23.252;2022-07-06T16:56:55;3.67;;;2.45;;
20619;SDS011;10469;42.720;23.252;2022-07-06T16:59:21;8.13;;;3.03;;
20619;SDS011;10469;42.720;23.252;2022-07-06T17:01:46;3.03;;;2.30;;
20619;SDS011;10469;42.720;23.252;2022-07-06T17:04:12;3.08;;;2.78;;
20619;SDS011;10469;42.720;23.252;2022-07-06T17:06:38;6.50;;;2.70;;
20619;SDS011;10469;42.720;23.252;2022-07-06T17:09:03;3.53;;;2.33;;
20619;SDS011;10469;42.720;23.252;2022-07-06T17:11:29;5.20;;;2.42;;
20619;SDS011;10469;42.720;23.252;2022-07-06T17:13:54;6.30;;;2.90;;
20619;SDS011;10469;42.720;23.252;2022-07-06T17:16:20;9.80;;;2.58;;
20619;SDS011;10469;42.720;23.252;2022-07-06T17:18:45;5.78;;;2.75;;
20619;SDS011;10469;42.720;23.252;2022-07-06T17:21:11;3.50;;;2.22;;
20619;SDS011;10469;42.720;23.252;2022-07-06T17:23:37;2.20;;;2.00;;
20619;SDS011;10469;42.720;23.252;2022-07-06T17:26:02;3.40;;;2.60;;
20619;SDS011;10469;42.720;23.252;2022-07-06T17:28:28;5.55;;;2.70;;
20619;SDS011;10469;42.720;23.252;2022-07-06T17:30:54;3.22;;;2.60;;
20619;SDS011;10469;42.720;23.252;2022-07-06T17:33:19;3.83;;;2.63;;
20619;SDS011;10469;42.720;23.252;2022-07-06T17:35:45;2.38;;;2.20;;
20619;SDS011;10469;42.720;23.252;2022-07-06T17:38:11;6.25;;;3.60;;
20619;SDS011;10469;42.720;23.252;2022-07-06T17:40:36;3.67;;;2.63;;
20619;SDS011;10469;42.720;23.252;2022-07-06T17:43:02;4.82;;;2.72;;
20619;SDS011;10469;42.720;23.252;2022-07-06T17:45:28;7.00;;;2.50;;
20619;SDS011;10469;42.720;23.252;2022-07-06T17:47:54;4.68;;;2.95;;
20619;SDS011;10469;42.720;23.252;2022-07-06T17:50:19;2.60;;;2.40;;
20619;SDS011;10469;42.720;23.252;2022-07-06T17:52:45;5.15;;;2.58;;
20619;SDS011;10469;42.720;23.252;2022-07-06T17:55:11;4.82;;;2.92;;
20619;SDS011;10469;42.720;23.252;2022-07-06T17:57:37;3.03;;;2.72;;